RUDE1 VCRI-VOCI
Flight info
| Callsign | RUDE1 |
|---|---|
| Flight time | 0h 56m |
| Altitude | 38000 |
| Route | KIMOP1A KIMOP DCT KAT DCT MDI MDI1D |
| Aircraft | CL60/M-SBDE1E2E3FGHIJ1J4J5J7M3RWXYZ/LB1V1D1 |
Departure
| Time | 2026-05-05 10:35 |
|---|---|
| Airport | Mattala Rajapaksa International Airport (VCRI) |
Arrival
| Time | 2026-05-05 11:31 |
|---|---|
| Airport | Cochin International Airport (VOCI) |
| Time | Latitude | Longitude | Altitude | Speed | Heading |
|---|---|---|---|---|---|
| 2026-05-05 09:54 | 6.28854 | 81.12223 | 170 ft | 0 kts | 226° |
| 2026-05-05 10:24 | 6.28854 | 81.12224 | 170 ft | 1 kts | 226° |
| 2026-05-05 10:24 | 6.28864 | 81.12234 | 171 ft | 2 kts | 226° |
| 2026-05-05 10:24 | 6.28874 | 81.12245 | 171 ft | 2 kts | 226° |
| 2026-05-05 10:24 | 6.28885 | 81.12256 | 172 ft | 2 kts | 226° |
| 2026-05-05 10:25 | 6.28895 | 81.12266 | 172 ft | 2 kts | 226° |
| 2026-05-05 10:25 | 6.28902 | 81.12274 | 172 ft | 0 kts | 226° |
| 2026-05-05 10:25 | 6.28914 | 81.12282 | 173 ft | 2 kts | 195° |
| 2026-05-05 10:25 | 6.28929 | 81.12281 | 174 ft | 2 kts | 161° |
| 2026-05-05 10:26 | 6.28938 | 81.12277 | 174 ft | 0 kts | 137° |
| 2026-05-05 10:26 | 6.28938 | 81.12276 | 174 ft | 0 kts | 137° |
| 2026-05-05 10:26 | 6.28940 | 81.12274 | 174 ft | 0 kts | 135° |
| 2026-05-05 10:31 | 6.28932 | 81.12282 | 174 ft | 5 kts | 137° |
| 2026-05-05 10:31 | 6.28887 | 81.12325 | 172 ft | 11 kts | 135° |
| 2026-05-05 10:31 | 6.28823 | 81.12386 | 172 ft | 13 kts | 136° |
| 2026-05-05 10:31 | 6.28762 | 81.12447 | 173 ft | 10 kts | 134° |
| 2026-05-05 10:32 | 6.28711 | 81.12495 | 173 ft | 11 kts | 136° |
| 2026-05-05 10:32 | 6.28644 | 81.12561 | 171 ft | 15 kts | 129° |
| 2026-05-05 10:32 | 6.28683 | 81.12658 | 172 ft | 21 kts | 45° |
| 2026-05-05 10:32 | 6.28822 | 81.12803 | 170 ft | 33 kts | 46° |
| 2026-05-05 10:33 | 6.28991 | 81.12978 | 165 ft | 36 kts | 46° |
| 2026-05-05 10:33 | 6.29169 | 81.13163 | 162 ft | 36 kts | 46° |
| 2026-05-05 10:33 | 6.29312 | 81.13309 | 170 ft | 26 kts | 47° |
| 2026-05-05 10:33 | 6.29410 | 81.13406 | 177 ft | 13 kts | 29° |
| 2026-05-05 10:34 | 6.29519 | 81.13438 | 178 ft | 18 kts | 26° |
| 2026-05-05 10:34 | 6.29512 | 81.13500 | 179 ft | 12 kts | 185° |
| 2026-05-05 10:34 | 6.29416 | 81.13418 | 178 ft | 41 kts | 226° |
| 2026-05-05 10:34 | 6.28917 | 81.12901 | 172 ft | 151 kts | 225° |
| 2026-05-05 10:35 | 6.28163 | 81.12071 | 922 ft | 168 kts | 228° |
| 2026-05-05 10:35 | 6.27367 | 81.11172 | 1976 ft | 183 kts | 227° |
| 2026-05-05 10:35 | 6.26442 | 81.10200 | 2828 ft | 212 kts | 223° |
| 2026-05-05 10:35 | 6.25298 | 81.09057 | 3559 ft | 256 kts | 226° |
| 2026-05-05 10:36 | 6.24026 | 81.07695 | 4442 ft | 283 kts | 232° |
| 2026-05-05 10:36 | 6.23258 | 81.05872 | 5751 ft | 291 kts | 266° |
| 2026-05-05 10:36 | 6.23562 | 81.03967 | 7404 ft | 286 kts | 291° |
| 2026-05-05 10:36 | 6.24538 | 81.02270 | 9005 ft | 287 kts | 308° |
| 2026-05-05 10:37 | 6.26017 | 81.00968 | 10403 ft | 293 kts | 326° |
| 2026-05-05 10:37 | 6.27925 | 81.00201 | 11556 ft | 311 kts | 344° |
| 2026-05-05 10:37 | 6.30236 | 81.00215 | 11996 ft | 354 kts | 11° |
| 2026-05-05 10:37 | 6.32683 | 81.00895 | 12678 ft | 375 kts | 9° |
| 2026-05-05 10:38 | 6.35272 | 81.00911 | 13582 ft | 379 kts | 345° |
| 2026-05-05 10:38 | 6.37706 | 80.99885 | 14601 ft | 378 kts | 326° |
| 2026-05-05 10:38 | 6.39832 | 80.98350 | 15592 ft | 382 kts | 316° |
| 2026-05-05 10:38 | 6.41659 | 80.96424 | 16619 ft | 383 kts | 305° |
| 2026-05-05 10:39 | 6.43222 | 80.94236 | 17549 ft | 387 kts | 302° |
| 2026-05-05 10:39 | 6.44761 | 80.92001 | 18421 ft | 393 kts | 302° |
| 2026-05-05 10:39 | 6.46331 | 80.89726 | 19222 ft | 400 kts | 302° |
| 2026-05-05 10:39 | 6.47912 | 80.87437 | 19945 ft | 407 kts | 303° |
| 2026-05-05 10:40 | 6.49549 | 80.85066 | 20667 ft | 413 kts | 303° |
| 2026-05-05 10:40 | 6.51198 | 80.82677 | 21349 ft | 419 kts | 303° |
| 2026-05-05 10:40 | 6.52852 | 80.80280 | 22010 ft | 424 kts | 304° |
| 2026-05-05 10:40 | 6.54561 | 80.77804 | 22677 ft | 428 kts | 304° |
| 2026-05-05 10:41 | 6.56270 | 80.75326 | 23337 ft | 432 kts | 304° |
| 2026-05-05 10:41 | 6.57998 | 80.72822 | 23979 ft | 436 kts | 304° |
| 2026-05-05 10:41 | 6.59746 | 80.70287 | 24594 ft | 440 kts | 304° |
| 2026-05-05 10:41 | 6.61486 | 80.67764 | 25141 ft | 445 kts | 305° |
| 2026-05-05 10:42 | 6.65068 | 80.62569 | 26204 ft | 453 kts | 305° |
| 2026-05-05 10:42 | 6.66876 | 80.59945 | 26708 ft | 456 kts | 305° |
| 2026-05-05 10:42 | 6.68701 | 80.57296 | 27183 ft | 460 kts | 306° |
| 2026-05-05 10:43 | 6.70518 | 80.54658 | 27639 ft | 463 kts | 305° |
| 2026-05-05 10:43 | 6.72363 | 80.51981 | 28075 ft | 466 kts | 305° |
| 2026-05-05 10:43 | 6.74219 | 80.49286 | 28492 ft | 469 kts | 306° |
| 2026-05-05 10:43 | 6.76079 | 80.46584 | 28921 ft | 471 kts | 306° |
| 2026-05-05 10:44 | 6.77937 | 80.43864 | 29487 ft | 470 kts | 305° |
| 2026-05-05 10:44 | 6.79768 | 80.41135 | 29993 ft | 470 kts | 305° |
| 2026-05-05 10:44 | 6.81609 | 80.38393 | 30412 ft | 472 kts | 306° |
| 2026-05-05 10:44 | 6.83470 | 80.35620 | 30796 ft | 474 kts | 305° |
| 2026-05-05 10:45 | 6.85313 | 80.32873 | 31112 ft | 478 kts | 305° |
| 2026-05-05 10:45 | 6.87182 | 80.30087 | 31398 ft | 481 kts | 305° |
| 2026-05-05 10:45 | 6.89086 | 80.27249 | 31610 ft | 485 kts | 305° |
| 2026-05-05 10:45 | 6.90973 | 80.24437 | 31891 ft | 487 kts | 305° |
| 2026-05-05 10:46 | 6.92867 | 80.21612 | 32150 ft | 489 kts | 306° |
| 2026-05-05 10:46 | 6.94792 | 80.18742 | 32425 ft | 490 kts | 305° |
| 2026-05-05 10:46 | 6.96710 | 80.15880 | 32681 ft | 492 kts | 305° |
| 2026-05-05 10:46 | 6.98611 | 80.13044 | 33125 ft | 489 kts | 305° |
| 2026-05-05 10:47 | 7.00527 | 80.10184 | 33710 ft | 485 kts | 306° |
| 2026-05-05 10:47 | 7.02393 | 80.07399 | 34313 ft | 480 kts | 305° |
| 2026-05-05 10:47 | 7.04255 | 80.04619 | 34847 ft | 477 kts | 306° |
| 2026-05-05 10:47 | 7.06108 | 80.01852 | 35320 ft | 475 kts | 305° |
| 2026-05-05 10:48 | 7.07969 | 79.99075 | 35726 ft | 474 kts | 305° |
| 2026-05-05 10:48 | 7.09806 | 79.96332 | 36039 ft | 475 kts | 305° |
| 2026-05-05 10:48 | 7.11672 | 79.93544 | 36343 ft | 476 kts | 305° |
| 2026-05-05 10:48 | 7.13542 | 79.90801 | 36673 ft | 475 kts | 308° |
| 2026-05-05 10:49 | 7.15643 | 79.88245 | 36984 ft | 473 kts | 315° |
| 2026-05-05 10:49 | 7.18052 | 79.85954 | 37266 ft | 471 kts | 322° |
| 2026-05-05 10:49 | 7.20679 | 79.84003 | 37513 ft | 470 kts | 328° |
| 2026-05-05 10:49 | 7.23442 | 79.82256 | 37669 ft | 472 kts | 330° |
| 2026-05-05 10:50 | 7.26245 | 79.80502 | 37802 ft | 474 kts | 330° |
| 2026-05-05 10:50 | 7.31891 | 79.76962 | 37816 ft | 479 kts | 330° |
| 2026-05-05 10:51 | 7.37567 | 79.73401 | 37816 ft | 478 kts | 330° |
| 2026-05-05 10:51 | 7.43211 | 79.69857 | 37822 ft | 476 kts | 330° |
| 2026-05-05 10:52 | 7.48820 | 79.66334 | 37817 ft | 476 kts | 330° |
| 2026-05-05 10:52 | 7.54447 | 79.62798 | 37815 ft | 476 kts | 329° |
| 2026-05-05 10:53 | 7.60113 | 79.59235 | 37816 ft | 476 kts | 330° |
| 2026-05-05 10:53 | 7.65733 | 79.55700 | 37817 ft | 475 kts | 330° |
| 2026-05-05 10:54 | 7.71381 | 79.52147 | 37807 ft | 481 kts | 330° |
| 2026-05-05 10:54 | 7.77126 | 79.48531 | 37804 ft | 490 kts | 329° |
| 2026-05-05 10:55 | 7.82955 | 79.44862 | 37805 ft | 496 kts | 329° |
| 2026-05-05 10:55 | 7.88730 | 79.41028 | 37804 ft | 499 kts | 326° |
| 2026-05-05 10:56 | 7.94468 | 79.37009 | 37806 ft | 498 kts | 326° |
| 2026-05-05 10:56 | 8.00152 | 79.33028 | 37800 ft | 497 kts | 326° |
| 2026-05-05 10:57 | 8.05810 | 79.29066 | 37801 ft | 495 kts | 326° |
| 2026-05-05 10:57 | 8.11499 | 79.25082 | 37796 ft | 494 kts | 326° |
| 2026-05-05 10:58 | 8.17171 | 79.21107 | 37790 ft | 494 kts | 326° |
| 2026-05-05 10:58 | 8.22818 | 79.17151 | 37783 ft | 494 kts | 326° |
| 2026-05-05 10:59 | 8.28484 | 79.13180 | 37787 ft | 494 kts | 326° |
| 2026-05-05 10:59 | 8.34128 | 79.09222 | 37786 ft | 494 kts | 326° |
| 2026-05-05 11:00 | 8.39781 | 79.05258 | 37779 ft | 494 kts | 326° |
| 2026-05-05 11:00 | 8.45426 | 79.01299 | 37781 ft | 493 kts | 326° |
| 2026-05-05 11:01 | 8.51048 | 78.97353 | 37782 ft | 492 kts | 326° |
| 2026-05-05 11:01 | 8.56706 | 78.93399 | 37781 ft | 492 kts | 327° |
| 2026-05-05 11:02 | 8.62448 | 78.89579 | 37782 ft | 493 kts | 327° |
| 2026-05-05 11:02 | 8.68175 | 78.85773 | 37780 ft | 493 kts | 327° |
| 2026-05-05 11:03 | 8.73929 | 78.81947 | 37772 ft | 494 kts | 327° |
| 2026-05-05 11:03 | 8.79684 | 78.78117 | 37765 ft | 494 kts | 327° |
| 2026-05-05 11:04 | 8.85428 | 78.74294 | 37766 ft | 494 kts | 327° |
| 2026-05-05 11:04 | 8.91188 | 78.70457 | 37763 ft | 494 kts | 327° |
| 2026-05-05 11:05 | 8.96934 | 78.66627 | 37770 ft | 494 kts | 327° |
| 2026-05-05 11:05 | 9.02679 | 78.62798 | 37761 ft | 494 kts | 327° |
| 2026-05-05 11:06 | 9.08436 | 78.58958 | 37764 ft | 495 kts | 327° |
| 2026-05-05 11:06 | 9.14255 | 78.55075 | 37763 ft | 496 kts | 327° |
| 2026-05-05 11:07 | 9.20003 | 78.51238 | 37770 ft | 497 kts | 327° |
| 2026-05-05 11:07 | 9.25825 | 78.47350 | 37774 ft | 498 kts | 327° |
| 2026-05-05 11:08 | 9.31626 | 78.43474 | 37773 ft | 499 kts | 327° |
| 2026-05-05 11:08 | 9.37417 | 78.39603 | 37777 ft | 499 kts | 327° |
| 2026-05-05 11:09 | 9.43231 | 78.35716 | 37779 ft | 498 kts | 327° |
| 2026-05-05 11:09 | 9.48996 | 78.31860 | 37778 ft | 492 kts | 327° |
| 2026-05-05 11:10 | 9.54721 | 78.28029 | 37387 ft | 494 kts | 327° |
| 2026-05-05 11:10 | 9.57584 | 78.26112 | 37136 ft | 492 kts | 327° |
| 2026-05-05 11:10 | 9.60431 | 78.24206 | 36891 ft | 493 kts | 327° |
| 2026-05-05 11:10 | 9.63322 | 78.22269 | 36641 ft | 494 kts | 327° |
| 2026-05-05 11:11 | 9.66179 | 78.20356 | 36407 ft | 495 kts | 327° |
| 2026-05-05 11:11 | 9.69086 | 78.18409 | 36161 ft | 497 kts | 327° |
| 2026-05-05 11:11 | 9.71985 | 78.16466 | 35919 ft | 498 kts | 327° |
| 2026-05-05 11:11 | 9.74878 | 78.14527 | 35584 ft | 500 kts | 327° |
| 2026-05-05 11:12 | 9.77771 | 78.12588 | 34966 ft | 503 kts | 327° |
| 2026-05-05 11:12 | 9.80645 | 78.10540 | 34335 ft | 503 kts | 322° |
| 2026-05-05 11:12 | 9.83296 | 78.08181 | 33693 ft | 503 kts | 315° |
| 2026-05-05 11:12 | 9.85626 | 78.05553 | 33033 ft | 503 kts | 308° |
| 2026-05-05 11:13 | 9.87744 | 78.02722 | 32366 ft | 499 kts | 306° |
| 2026-05-05 11:13 | 9.89827 | 77.99891 | 31706 ft | 499 kts | 306° |
| 2026-05-05 11:13 | 9.91889 | 77.97092 | 31048 ft | 496 kts | 306° |
| 2026-05-05 11:13 | 9.93937 | 77.94311 | 30392 ft | 492 kts | 306° |
| 2026-05-05 11:14 | 9.95979 | 77.91538 | 29746 ft | 486 kts | 306° |
| 2026-05-05 11:14 | 9.97865 | 77.88703 | 29106 ft | 479 kts | 298° |
| 2026-05-05 11:14 | 9.99115 | 77.85586 | 28443 ft | 472 kts | 285° |
| 2026-05-05 11:14 | 9.99675 | 77.82379 | 27810 ft | 464 kts | 276° |
| 2026-05-05 11:15 | 10.00036 | 77.79158 | 27214 ft | 458 kts | 276° |
| 2026-05-05 11:15 | 10.00404 | 77.75922 | 26608 ft | 455 kts | 276° |
| 2026-05-05 11:15 | 10.00763 | 77.72770 | 26020 ft | 451 kts | 276° |
| 2026-05-05 11:15 | 10.01119 | 77.69640 | 25441 ft | 448 kts | 276° |
| 2026-05-05 11:16 | 10.01477 | 77.66493 | 24863 ft | 445 kts | 275° |
| 2026-05-05 11:16 | 10.01828 | 77.63404 | 24259 ft | 441 kts | 275° |
| 2026-05-05 11:16 | 10.02175 | 77.60349 | 23706 ft | 438 kts | 276° |
| 2026-05-05 11:16 | 10.02524 | 77.57269 | 23139 ft | 435 kts | 276° |
| 2026-05-05 11:17 | 10.02868 | 77.54236 | 22578 ft | 432 kts | 276° |
| 2026-05-05 11:17 | 10.03206 | 77.51252 | 22025 ft | 430 kts | 276° |
| 2026-05-05 11:17 | 10.03547 | 77.48240 | 21460 ft | 426 kts | 276° |
| 2026-05-05 11:17 | 10.03883 | 77.45267 | 20937 ft | 423 kts | 276° |
| 2026-05-05 11:18 | 10.04217 | 77.42312 | 20395 ft | 419 kts | 276° |
| 2026-05-05 11:18 | 10.04547 | 77.39394 | 19846 ft | 415 kts | 276° |
| 2026-05-05 11:18 | 10.04875 | 77.36476 | 19324 ft | 412 kts | 276° |
| 2026-05-05 11:18 | 10.05198 | 77.33617 | 18807 ft | 409 kts | 276° |
| 2026-05-05 11:19 | 10.05516 | 77.30788 | 18281 ft | 405 kts | 276° |
| 2026-05-05 11:19 | 10.05837 | 77.27936 | 17769 ft | 401 kts | 277° |
| 2026-05-05 11:19 | 10.06150 | 77.25150 | 17263 ft | 397 kts | 277° |
| 2026-05-05 11:19 | 10.06460 | 77.22392 | 16729 ft | 394 kts | 277° |
| 2026-05-05 11:20 | 10.06769 | 77.19641 | 16199 ft | 391 kts | 277° |
| 2026-05-05 11:20 | 10.07074 | 77.16917 | 15666 ft | 388 kts | 277° |
| 2026-05-05 11:20 | 10.07380 | 77.14191 | 15220 ft | 384 kts | 277° |
| 2026-05-05 11:20 | 10.07680 | 77.11510 | 15055 ft | 383 kts | 277° |
| 2026-05-05 11:21 | 10.07983 | 77.08807 | 14496 ft | 384 kts | 277° |
| 2026-05-05 11:21 | 10.08278 | 77.06168 | 13791 ft | 378 kts | 277° |
| 2026-05-05 11:21 | 10.08569 | 77.03560 | 13301 ft | 367 kts | 278° |
| 2026-05-05 11:21 | 10.08853 | 77.01011 | 12789 ft | 357 kts | 278° |
| 2026-05-05 11:22 | 10.09126 | 76.98553 | 12297 ft | 346 kts | 278° |
| 2026-05-05 11:22 | 10.09392 | 76.96164 | 11864 ft | 332 kts | 278° |
| 2026-05-05 11:22 | 10.09645 | 76.93884 | 11415 ft | 322 kts | 278° |
| 2026-05-05 11:22 | 10.09892 | 76.91661 | 10992 ft | 313 kts | 278° |
| 2026-05-05 11:23 | 10.10138 | 76.89461 | 10525 ft | 311 kts | 278° |
| 2026-05-05 11:23 | 10.10382 | 76.87270 | 9976 ft | 311 kts | 278° |
| 2026-05-05 11:23 | 10.10624 | 76.85096 | 9427 ft | 310 kts | 278° |
| 2026-05-05 11:23 | 10.10865 | 76.82937 | 8958 ft | 307 kts | 278° |
| 2026-05-05 11:24 | 10.11103 | 76.80797 | 8456 ft | 304 kts | 278° |
| 2026-05-05 11:24 | 10.11336 | 76.78691 | 7975 ft | 301 kts | 278° |
| 2026-05-05 11:24 | 10.11567 | 76.76610 | 7463 ft | 295 kts | 278° |
| 2026-05-05 11:24 | 10.11795 | 76.74558 | 7025 ft | 283 kts | 278° |
| 2026-05-05 11:25 | 10.11920 | 76.72605 | 6589 ft | 275 kts | 270° |
| 2026-05-05 11:25 | 10.11853 | 76.70707 | 6158 ft | 267 kts | 269° |
| 2026-05-05 11:25 | 10.11783 | 76.68839 | 5741 ft | 259 kts | 269° |
| 2026-05-05 11:25 | 10.11717 | 76.67048 | 5340 ft | 252 kts | 269° |
| 2026-05-05 11:26 | 10.11654 | 76.65301 | 4945 ft | 245 kts | 270° |
| 2026-05-05 11:26 | 10.11593 | 76.63601 | 4568 ft | 238 kts | 269° |
| 2026-05-05 11:26 | 10.11534 | 76.61950 | 4203 ft | 233 kts | 269° |
| 2026-05-05 11:26 | 10.11477 | 76.60325 | 3862 ft | 230 kts | 270° |
| 2026-05-05 11:27 | 10.11714 | 76.58742 | 3459 ft | 230 kts | 295° |
| 2026-05-05 11:27 | 10.12665 | 76.57483 | 3091 ft | 219 kts | 322° |
| 2026-05-05 11:27 | 10.13917 | 76.56663 | 2706 ft | 210 kts | 329° |
| 2026-05-05 11:27 | 10.15024 | 76.55727 | 2345 ft | 202 kts | 308° |
| 2026-05-05 11:28 | 10.15483 | 76.54472 | 2259 ft | 185 kts | 278° |
| 2026-05-05 11:28 | 10.15531 | 76.53206 | 2154 ft | 176 kts | 274° |
| 2026-05-05 11:28 | 10.15531 | 76.52003 | 1940 ft | 165 kts | 272° |
| 2026-05-05 11:28 | 10.15506 | 76.50873 | 1748 ft | 156 kts | 271° |
| 2026-05-05 11:29 | 10.15470 | 76.49770 | 1541 ft | 154 kts | 270° |
| 2026-05-05 11:29 | 10.15430 | 76.48704 | 1357 ft | 152 kts | 269° |
| 2026-05-05 11:29 | 10.15381 | 76.47626 | 1159 ft | 151 kts | 268° |
| 2026-05-05 11:29 | 10.15319 | 76.46625 | 1007 ft | 130 kts | 268° |
| 2026-05-05 11:30 | 10.15274 | 76.45708 | 811 ft | 132 kts | 268° |
| 2026-05-05 11:30 | 10.15247 | 76.44786 | 656 ft | 134 kts | 268° |
| 2026-05-05 11:30 | 10.15233 | 76.43848 | 478 ft | 131 kts | 268° |
| 2026-05-05 11:30 | 10.15211 | 76.42928 | 295 ft | 130 kts | 269° |
| 2026-05-05 11:31 | 10.15179 | 76.42014 | 135 ft | 129 kts | 269° |
| 2026-05-05 11:31 | 10.15146 | 76.41135 | 41 ft | 115 kts | 268° |
| 2026-05-05 11:31 | 10.15125 | 76.40489 | 37 ft | 50 kts | 265° |
| 2026-05-05 11:31 | 10.15116 | 76.40256 | 35 ft | 24 kts | 268° |
| 2026-05-05 11:32 | 10.15155 | 76.40185 | 35 ft | 15 kts | 353° |
| 2026-05-05 11:32 | 10.15214 | 76.40180 | 36 ft | 0 kts | 355° |
| 2026-05-05 11:32 | 10.15228 | 76.40179 | 36 ft | 4 kts | 356° |
| 2026-05-05 11:33 | 10.15277 | 76.40167 | 37 ft | 9 kts | 319° |
| 2026-05-05 11:33 | 10.15288 | 76.40085 | 36 ft | 14 kts | 267° |
| 2026-05-05 11:33 | 10.15285 | 76.39984 | 35 ft | 11 kts | 269° |
| 2026-05-05 11:33 | 10.15329 | 76.39936 | 36 ft | 9 kts | 12° |
| 2026-05-05 11:34 | 10.15395 | 76.39932 | 37 ft | 11 kts | 358° |
| 2026-05-05 11:34 | 10.15480 | 76.39926 | 40 ft | 12 kts | 355° |
| 2026-05-05 11:34 | 10.15564 | 76.39921 | 43 ft | 11 kts | 1° |
| 2026-05-05 11:34 | 10.15655 | 76.39915 | 44 ft | 14 kts | 358° |
| 2026-05-05 11:35 | 10.15716 | 76.39947 | 45 ft | 0 kts | 40° |
| 2026-05-05 11:35 | 10.15730 | 76.39967 | 45 ft | 7 kts | 77° |
| 2026-05-05 11:35 | 10.15732 | 76.40010 | 44 ft | 2 kts | 88° |